Última Atualização: 03:20 - 28/02/2020

Estação Hora Leitura 15 min 1 h 4 h 24 h 96 h No Mês
1 Vidigal 03:15 0,0 0,0 0,0 15,8 17,2 253,4
2 Urca 03:15 0,0 0,4 0,8 9,8 10,6 261,2
3 Rocinha 03:15 0,0 0,0 0,0 20,2 21,2 349,8
4 Tijuca 03:15 0,2 0,6 2,0 9,2 10,4 383,0
5 Santa Teresa 03:15 0,0 0,4 1,2 7,2 9,6 328,4
6 Copacabana 03:15 0,0 0,0 0,2 17,2 17,6 262,6
7 Grajaú 03:15 0,0 0,0 0,0 5,4 5,8 349,6
8 Ilha do Governador 03:15 0,0 0,2 1,2 10,4 20,2 261,8
9 Penha 03:15 0,0 0,2 0,8 3,6 11,2 241,0
10 Madureira 03:15 0,0 0,0 0,2 5,2 9,4 269,2
11 Irajá 03:15 0,0 0,2 0,2 4,4 9,4 260,4
12 Bangu 03:15 0,0 0,0 0,0 4,6 7,2 221,0
13 Piedade 03:15 0,0 0,0 0,0 3,8 5,8 256,6
14 Jacarepaguá/Tanque 03:15 0,0 0,0 0,0 7,4 8,0 282,0
15 Saúde 03:15 0,0 0,2 0,4 3,0 7,4 258,4
16 Jardim Botânico 03:15 0,0 0,2 0,2 20,2 20,4 330,6
17 Barra/Barrinha 03:15 0,0 0,0 0,0 19,8 21,6 284,2
18 Jacarepaguá/Cidade de Deus 03:15 0,0 0,0 0,0 12,4 13,0 254,8
19 Barra/Riocentro 03:15 0,0 203,0 203,0 222,4 222,8 392,2
20 Guaratiba 03:15 0,0 0,0 0,0 11,2 12,4 187,0
21 Est. Grajaú/Jacarepaguá 03:00 0,0 0,2 0,4 16,6 17,2 327,4
22 Santa Cruz 03:15 0,0 0,0 0,0 7,6 10,2 271,4
23 Grande Méier 03:15 0,2 0,2 0,2 6,6 12,4 213,4
24 Anchieta 03:15 0,0 0,0 0,0 8,0 13,6 302,4
25 Grota Funda 03:15 0,0 0,0 0,0 23,6 24,0 295,6
26 Campo Grande 03:15 0,0 0,0 0,0 11,0 14,8 214,8
27 Sepetiba 03:15 0,0 0,0 0,0 11,2 13,6 230,2
28 Alto da Boa Vista 03:15 0,0 0,2 0,4 42,4 43,0 469,0
29 Av. Brasil/Mendanha 03:15 0,0 0,0 0,0 10,0 12,0 191,8
30 Recreio dos Bandeirantes 03:15 0,0 0,0 0,0 23,2 24,4 212,0
31 Laranjeiras 03:15 0,0 0,4 1,2 10,8 12,4 303,4
32 São Cristóvão 03:15 0,0 0,2 0,4 5,2 12,0 308,4
33 Tijuca/Muda 03:15 0,0 0,0 0,2 6,8 7,0 280,4
Dados Meteorológicos
Estação Hora Direção Vento (graus) Velocidade Vento (Km/h) Temperatura (celsius) Pressão (hPa) Umidade (%)
1 Vidigal 03:15 220,3 0,0 - - -
11 Irajá 03:15 - - - - -
16 Jardim Botânico 03:15 - - 22,2 - 91,0
19 Barra/Riocentro 03:15 - - 21,7 - 87,8
20 Guaratiba 03:15 45,2 1,4 20,4 1010,9 99,0
22 Santa Cruz 03:15 - - 21,6 - 93,5
28 Alto da Boa Vista 03:15 - - 18,8 - 99,4
32 São Cristóvão 03:15 313,1 0,0 20,9 1011,0 90,8
100 Teste 06:45 168,9 0,0 - - 50,3